createdAt,value
2023-04-19T00:07:51.237Z,12.76
2023-04-19T00:18:00.238Z,12.65
2023-04-19T00:28:05.051Z,12.43
2023-04-19T00:38:07.468Z,11.95
2023-04-19T00:48:09.725Z,11.52
2023-04-19T00:58:14.087Z,11.37
2023-04-19T01:08:15.986Z,11.10
2023-04-19T01:18:19.391Z,11.11
2023-04-19T01:28:23.510Z,11.00
2023-04-19T01:38:30.854Z,10.80
2023-04-19T01:48:36.602Z,10.73
2023-04-19T01:58:38.406Z,10.82
2023-04-19T02:08:40.868Z,10.90
2023-04-19T02:18:48.477Z,10.93
2023-04-19T02:28:53.265Z,10.88
2023-04-19T02:38:56.005Z,10.85
2023-04-19T02:49:01.345Z,10.80
2023-04-19T02:59:04.815Z,10.99
2023-04-19T03:09:06.560Z,10.98
2023-04-19T03:19:08.345Z,10.75
2023-04-19T03:29:14.625Z,10.60
2023-04-19T03:39:17.316Z,10.39
2023-04-19T03:49:19.159Z,10.11
2023-04-19T03:59:21.890Z,9.91
2023-04-19T04:09:25.625Z,9.83
2023-04-19T04:19:27.490Z,9.71
2023-04-19T04:29:32.493Z,9.97
2023-04-19T04:39:39.696Z,10.19
2023-04-19T04:49:41.668Z,10.25
2023-04-19T04:59:43.935Z,10.41
2023-04-19T05:09:45.698Z,10.46
2023-04-19T05:19:47.453Z,10.73
2023-04-19T05:29:59.653Z,11.33
2023-04-19T05:40:01.609Z,11.80
2023-04-19T05:50:04.538Z,12.21
2023-04-19T06:00:08.981Z,12.68
2023-04-19T06:10:10.896Z,13.37
2023-04-19T06:20:14.923Z,14.54
2023-04-19T06:30:21.340Z,14.89
2023-04-19T06:40:24.092Z,15.34
2023-04-19T06:50:27.620Z,16.13
2023-04-19T07:00:29.335Z,16.09
2023-04-19T07:10:31.266Z,16.53
2023-04-19T07:20:33.154Z,16.73
2023-04-19T07:30:36.613Z,16.74
2023-04-19T07:40:38.327Z,16.84
2023-04-19T07:50:40.419Z,17.35
2023-04-19T08:00:42.102Z,17.62
2023-04-19T08:10:44.368Z,16.79
2023-04-19T08:20:47.288Z,17.22
2023-04-19T08:30:50.404Z,18.61
2023-04-19T08:40:53.837Z,20.41
2023-04-19T09:01:11.305Z,21.39
2023-04-19T09:11:20.250Z,20.76
2023-04-19T09:21:29.848Z,20.34
2023-04-19T09:31:47.877Z,23.55
2023-04-19T09:41:54.955Z,22.17
2023-04-19T09:51:58.096Z,26.83
2023-04-19T10:02:01.973Z,22.06
2023-04-19T10:12:19.117Z,29.42
2023-04-19T10:22:28.646Z,32.81
2023-04-19T10:32:38.270Z,21.26
2023-04-19T10:43:11.536Z,19.08
2023-04-19T10:53:51.824Z,20.81
2023-04-19T11:03:57.950Z,26.98
2023-04-19T11:14:04.629Z,21.83
2023-04-19T11:24:11.881Z,25.71
2023-04-19T11:34:15.076Z,21.02
2023-04-19T11:44:21.787Z,28.57
2023-04-19T11:54:27.147Z,25.90
2023-04-19T12:04:32.316Z,30.61
2023-04-19T12:14:35.724Z,25.40
2023-04-19T12:24:39.787Z,27.46
2023-04-19T12:34:41.946Z,25.31
2023-04-19T12:44:46.937Z,21.23
2023-04-19T12:54:48.668Z,21.65
2023-04-19T13:04:52.857Z,19.45
2023-04-19T13:14:54.890Z,19.89
2023-04-19T13:24:57.597Z,21.02
2023-04-19T13:35:01.247Z,23.88
2023-04-19T13:45:03.354Z,23.30
2023-04-19T13:55:07.813Z,28.66
2023-04-19T14:05:10.905Z,28.26
2023-04-19T14:15:13.606Z,21.57
2023-04-19T14:25:20.645Z,20.84
2023-04-19T14:35:22.857Z,22.18
2023-04-19T14:45:27.796Z,23.21
2023-04-19T14:55:30.963Z,22.72
2023-04-19T15:05:36.602Z,21.91
2023-04-19T15:15:39.342Z,20.97
2023-04-19T15:25:49.864Z,20.23
2023-04-19T15:35:54.615Z,19.41
2023-04-19T15:45:56.823Z,19.41
2023-04-19T15:55:58.523Z,18.49
2023-04-19T16:06:00.182Z,18.27
2023-04-19T16:16:02.005Z,18.20
2023-04-19T16:26:04.345Z,18.11
2023-04-19T16:36:06.536Z,17.28
2023-04-19T16:46:11.348Z,16.72
2023-04-19T16:56:14.280Z,16.48
2023-04-19T17:06:23.305Z,16.05
2023-04-19T17:16:26.101Z,15.13
2023-04-19T17:26:34.481Z,14.58
2023-04-19T17:36:43.124Z,14.04
2023-04-19T17:46:45.930Z,13.68
2023-04-19T17:56:49.843Z,13.40
2023-04-19T18:07:04.868Z,12.96
2023-04-19T18:17:08.660Z,12.63
2023-04-19T18:27:15.510Z,12.39
2023-04-19T18:37:19.273Z,12.13
2023-04-19T18:47:26.756Z,12.03
2023-04-19T18:57:33.173Z,11.73
2023-04-19T19:07:43.289Z,11.52
2023-04-19T19:17:49.880Z,11.44
2023-04-19T19:28:07.021Z,11.34
2023-04-19T19:38:13.984Z,11.16
2023-04-19T19:48:17.835Z,10.95
2023-04-19T20:08:44.364Z,10.57
2023-04-19T20:18:49.748Z,10.33
2023-04-19T20:28:53.823Z,10.12
2023-04-19T20:38:57.666Z,10.06
2023-04-19T20:49:00.104Z,9.75
2023-04-19T20:59:02.077Z,9.77
2023-04-19T21:09:06.138Z,9.50
2023-04-19T21:19:07.810Z,9.22
2023-04-19T21:29:09.492Z,9.35
2023-04-19T21:39:11.079Z,9.13
2023-04-19T21:49:12.913Z,9.17
2023-04-19T21:59:15.535Z,9.08
2023-04-19T22:09:20.352Z,8.96
2023-04-19T22:19:26.887Z,8.90
2023-04-19T22:29:28.702Z,8.76
2023-04-19T22:39:30.593Z,8.46
2023-04-19T22:49:35.251Z,8.25
2023-04-19T22:59:36.895Z,8.11
2023-04-19T23:09:39.464Z,8.02
2023-04-19T23:19:42.135Z,8.04
2023-04-19T23:29:44.131Z,7.89
2023-04-19T23:39:45.857Z,7.90
2023-04-19T23:49:47.775Z,7.84
2023-04-19T23:59:50.720Z,7.79
